Time;durP1;ratioP1;P1;durP2;ratioP2;P2;SDS_P1;SDS_P2;PMS_P1;PMS_P2;Temp;Humidity;BMP_temperature;BMP_pressure;BME280_temperature;BME280_humidity;BME280_pressure;Samples;Min_cycle;Max_cycle;Signal;HPM_P1;HPM_P2
2023/03/13 00:00:47;;;;;;;5.73;5.13;;;;;;;7.78;43.94;99828.75;5162561;27;20187;-54
2023/03/13 00:03:14;;;;;;;5.93;4.80;;;;;;;7.77;43.64;99842.38;5161321;27;20177;-55
2023/03/13 00:05:41;;;;;;;5.60;4.90;;;;;;;7.80;43.86;99839.91;5162390;27;20158;-53
2023/03/13 00:08:07;;;;;;;8.63;5.40;;;;;;;7.73;44.32;99826.03;5141640;28;20189;-54
2023/03/13 00:10:38;;;;;;;6.97;5.27;;;;;;;7.72;44.41;99834.53;5141674;28;20158;-54
2023/03/13 00:13:05;;;;;;;5.97;4.87;;;;;;;7.79;44.77;99843.28;5141716;28;20150;-53
2023/03/13 00:15:32;;;;;;;5.93;5.03;;;;;;;7.78;44.19;99844.09;5141445;28;20170;-54
2023/03/13 00:17:58;;;;;;;5.93;5.30;;;;;;;7.71;44.51;99840.47;5141295;28;20164;-54
2023/03/13 00:20:25;;;;;;;6.20;5.60;;;;;;;7.70;44.26;99839.59;5141331;28;20180;-54
2023/03/13 00:22:52;;;;;;;6.40;5.70;;;;;;;6.99;44.14;99741.75;5141093;28;20175;-54
2023/03/13 00:25:19;;;;;;;7.77;5.33;;;;;;;7.48;43.96;99849.94;5141229;28;20151;-54
2023/03/13 00:27:48;;;;;;;6.93;5.77;;;;;;;7.42;44.11;99849.72;5140952;28;20232;-54
2023/03/13 00:30:15;;;;;;;5.50;4.93;;;;;;;7.39;44.35;99846.22;5141237;28;20154;-54
2023/03/13 00:32:42;;;;;;;6.78;5.95;;;;;;;7.37;44.54;99848.69;5140610;28;20407;-55
2023/03/13 00:35:09;;;;;;;6.57;5.80;;;;;;;7.35;44.35;99842.66;5141130;28;20151;-53
2023/03/13 00:37:36;;;;;;;6.63;5.73;;;;;;;7.29;44.32;99847.56;5141037;28;20238;-53
2023/03/13 00:40:03;;;;;;;6.10;5.50;;;;;;;7.27;44.41;99841.53;5140977;28;20181;-54
2023/03/13 00:42:30;;;;;;;7.40;5.63;;;;;;;7.27;44.36;99838.97;5140949;28;20164;-53
2023/03/13 00:44:58;;;;;;;6.43;5.80;;;;;;;7.28;44.41;99834.75;5144147;27;20177;-54
2023/03/13 00:47:25;;;;;;;6.97;5.60;;;;;;;7.25;44.76;99830.38;5161376;27;20153;-54
2023/03/13 00:49:52;;;;;;;10.00;6.13;;;;;;;7.27;44.35;99833.00;5161420;27;20157;-53
2023/03/13 00:52:19;;;;;;;6.67;5.63;;;;;;;7.24;44.52;99838.00;5161407;27;20161;-54
2023/03/13 00:54:45;;;;;;;6.27;5.67;;;;;;;7.16;44.59;99826.63;5161377;27;20154;-53
2023/03/13 00:57:12;;;;;;;6.40;5.80;;;;;;;6.90;45.57;99802.72;5161206;27;20224;-54
2023/03/13 00:59:39;;;;;;;6.63;5.90;;;;;;;7.01;45.18;99835.50;5161306;27;20150;-54
2023/03/13 01:02:07;;;;;;;6.67;6.07;;;;;;;7.01;44.88;99829.50;5161287;27;20154;-53
2023/03/13 01:04:34;;;;;;;6.37;5.73;;;;;;;6.94;45.07;99838.66;5161062;27;20166;-54
2023/03/13 01:07:01;;;;;;;6.90;5.83;;;;;;;6.94;45.62;99828.44;5161119;27;20222;-54
2023/03/13 01:09:27;;;;;;;7.70;6.30;;;;;;;6.87;45.04;99829.03;5161066;27;20181;-53
2023/03/13 01:11:54;;;;;;;6.83;6.17;;;;;;;6.84;46.28;99826.34;5161161;27;20157;-54
2023/03/13 01:14:21;;;;;;;7.57;6.88;;;;;;;6.80;45.65;99824.53;5159829;27;20409;-53
2023/03/13 01:16:48;;;;;;;6.43;5.80;;;;;;;6.84;46.06;99822.97;5161027;27;20160;-54
2023/03/13 01:19:17;;;;;;;7.37;6.30;;;;;;;6.80;46.03;99823.66;5160938;27;20157;-54
2023/03/13 01:21:45;;;;;;;7.03;5.80;;;;;;;6.73;46.12;99821.69;5160905;27;20161;-54
2023/03/13 01:24:12;;;;;;;8.60;6.43;;;;;;;6.72;45.85;99822.50;5160934;27;20154;-53
2023/03/13 01:26:39;;;;;;;7.77;6.93;;;;;;;6.67;46.20;99826.56;5160558;27;20156;-53
2023/03/13 01:29:06;;;;;;;8.10;7.30;;;;;;;6.65;46.09;99825.66;5160835;27;20173;-53
2023/03/13 01:31:34;;;;;;;8.17;7.00;;;;;;;6.53;47.10;99834.59;5160856;27;20164;-53
2023/03/13 01:34:02;;;;;;;8.18;7.38;;;;;;;6.34;47.22;99810.88;5160157;27;20393;-54
2023/03/13 01:36:31;;;;;;;7.87;7.07;;;;;;;6.48;47.03;99845.44;5160649;27;20172;-53
2023/03/13 01:39:00;;;;;;;11.43;7.77;;;;;;;6.33;47.20;99843.16;5160657;28;20161;-54
2023/03/13 01:41:28;;;;;;;8.93;7.07;;;;;;;6.18;48.47;99839.16;5160476;28;20183;-54
2023/03/13 01:43:56;;;;;;;8.47;7.17;;;;;;;6.14;48.39;99848.38;5160603;28;20175;-54
2023/03/13 01:46:23;;;;;;;8.27;7.47;;;;;;;6.05;48.98;99848.00;5160575;27;20171;-54
2023/03/13 01:48:54;;;;;;;10.43;7.73;;;;;;;5.96;48.77;99847.63;5160564;28;20185;-53
2023/03/13 01:51:25;;;;;;;9.10;8.20;;;;;;;5.90;49.35;99852.50;5160644;28;20180;-52
2023/03/13 01:54:00;;;;;;;9.77;8.40;;;;;;;5.86;49.44;99848.97;5160461;27;20220;-54
2023/03/13 01:56:34;;;;;;;10.93;8.43;;;;;;;5.68;49.30;99822.69;5160606;28;20150;-52
2023/03/13 01:59:02;;;;;;;12.13;8.10;;;;;;;5.75;48.72;99856.94;5160541;28;20190;-51
2023/03/13 02:01:29;;;;;;;11.37;9.13;;;;;;;5.66;49.70;99851.50;5160495;28;20153;-54
2023/03/13 02:03:57;;;;;;;12.67;8.13;;;;;;;5.66;50.23;99862.53;5160410;28;20179;-54
2023/03/13 02:06:28;;;;;;;8.33;7.50;;;;;;;5.64;50.15;99865.81;5160608;28;20157;-54
2023/03/13 02:08:58;;;;;;;13.33;8.73;;;;;;;5.61;50.81;99873.34;5160304;28;20206;-54
2023/03/13 02:11:32;;;;;;;10.90;8.53;;;;;;;5.58;50.20;99876.63;5151777;28;20180;-54
2023/03/13 02:14:00;;;;;;;9.73;8.73;;;;;;;5.53;50.41;99875.56;5139193;28;20413;-53
2023/03/13 02:16:28;;;;;;;10.93;8.37;;;;;;;5.55;50.37;99868.00;5139652;28;20160;-54
2023/03/13 02:18:55;;;;;;;8.33;7.53;;;;;;;5.59;50.43;99887.69;5139502;28;20226;-54
2023/03/13 02:21:33;;;;;;;8.70;7.80;;;;;;;5.56;50.49;99887.56;5139585;28;20162;-53
2023/03/13 02:24:13;;;;;;;9.70;8.70;;;;;;;5.63;50.28;99903.19;5139645;28;20157;-54
2023/03/13 02:26:41;;;;;;;8.17;7.40;;;;;;;5.61;50.32;99911.56;5139795;28;20153;-54
2023/03/13 02:29:16;;;;;;;9.57;8.50;;;;;;;5.56;50.09;99906.28;5143448;28;20178;-54
2023/03/13 02:31:44;;;;;;;10.37;8.50;;;;;;;5.59;50.91;99915.72;5143674;28;20147;-53
2023/03/13 02:34:15;;;;;;;10.73;8.17;;;;;;;5.57;50.86;99912.25;5143555;28;20155;-54
2023/03/13 02:36:43;;;;;;;9.43;8.47;;;;;;;5.52;50.96;99919.69;5143626;28;20196;-52
2023/03/13 02:39:13;;;;;;;11.97;9.90;;;;;;;5.43;50.62;99919.31;5143404;28;20166;-54
2023/03/13 02:41:43;;;;;;;11.90;9.30;;;;;;;5.40;51.22;99924.28;5143467;28;20158;-54
2023/03/13 02:44:10;;;;;;;11.07;8.83;;;;;;;5.31;52.03;99928.97;5143479;28;20148;-52
2023/03/13 02:46:45;;;;;;;14.80;9.90;;;;;;;5.09;52.09;99921.19;5143322;28;20158;-53
2023/03/13 02:49:21;;;;;;;9.37;8.30;;;;;;;5.00;53.38;99930.97;5143167;28;20202;-52
2023/03/13 02:51:48;;;;;;;9.50;8.50;;;;;;;4.76;53.38;99921.41;5143316;28;20147;-51
2023/03/13 02:54:19;;;;;;;11.33;7.87;;;;;;;4.86;53.32;99953.25;5143011;28;20172;-53
2023/03/13 02:56:51;;;;;;;9.73;8.30;;;;;;;4.74;54.02;99940.84;5143000;28;20161;-52
2023/03/13 02:59:18;;;;;;;9.37;7.77;;;;;;;4.70;53.96;99950.78;5143103;28;20162;-52
2023/03/13 03:01:45;;;;;;;9.60;7.90;;;;;;;4.53;54.08;99944.91;5143068;28;20150;-53
2023/03/13 03:04:12;;;;;;;9.03;7.57;;;;;;;4.47;54.21;99948.84;5142979;28;20193;-53
2023/03/13 03:06:39;;;;;;;9.47;7.87;;;;;;;4.39;54.80;99952.72;5142829;28;20164;-53
2023/03/13 03:09:06;;;;;;;9.40;8.27;;;;;;;4.38;54.64;99956.03;5141744;28;20187;-53
2023/03/13 03:11:32;;;;;;;10.67;8.67;;;;;;;4.41;55.09;99961.28;5142918;28;20189;-54
2023/03/13 03:14:01;;;;;;;11.20;8.27;;;;;;;4.44;54.77;99969.06;5142877;28;20174;-54
2023/03/13 03:16:28;;;;;;;10.37;8.43;;;;;;;4.41;54.57;99972.31;5142835;28;20160;-53
2023/03/13 03:18:55;;;;;;;9.77;8.43;;;;;;;4.33;54.67;99973.63;5149979;27;20170;-53
2023/03/13 03:21:22;;;;;;;10.53;8.20;;;;;;;4.26;55.20;99976.66;5163329;27;20153;-53
2023/03/13 03:23:50;;;;;;;10.68;9.20;;;;;;;4.24;55.74;99985.00;5163221;27;20430;-52
2023/03/13 03:26:17;;;;;;;12.10;9.40;;;;;;;4.29;55.27;99991.19;5163083;27;20159;-53
2023/03/13 03:28:44;;;;;;;11.97;9.07;;;;;;;4.34;55.27;99994.88;5162973;27;20213;-52
2023/03/13 03:31:15;;;;;;;11.20;8.30;;;;;;;4.34;55.21;99997.41;5163245;27;20156;-53
2023/03/13 03:33:42;;;;;;;11.20;8.97;;;;;;;4.28;55.40;100022.53;5163390;27;20164;-51
2023/03/13 03:36:12;;;;;;;9.60;8.70;;;;;;;4.23;55.42;100007.03;5163258;27;20151;-53
2023/03/13 03:38:39;;;;;;;11.23;9.47;;;;;;;4.24;55.85;100015.53;5162583;27;20191;-53
2023/03/13 03:41:07;;;;;;;13.00;9.57;;;;;;;4.20;55.56;100016.19;5163234;27;20153;-53
2023/03/13 03:43:34;;;;;;;12.18;10.10;;;;;;;4.14;55.78;100021.84;5162960;27;20409;-54
2023/03/13 03:46:01;;;;;;;11.63;8.87;;;;;;;4.17;56.12;100027.94;5163028;27;20152;-53
2023/03/13 03:48:29;;;;;;;10.93;9.03;;;;;;;4.09;56.67;100029.22;5162443;27;20187;-53
2023/03/13 03:50:56;;;;;;;11.85;10.45;;;;;;;4.22;56.63;100022.22;5161595;27;20405;-53
2023/03/13 03:53:23;;;;;;;12.17;9.87;;;;;;;4.30;55.94;100031.97;5162721;27;20189;-53
2023/03/13 03:55:50;;;;;;;10.37;8.90;;;;;;;4.28;56.00;100027.63;5162798;27;20159;-54
2023/03/13 03:58:17;;;;;;;12.53;10.10;;;;;;;4.24;56.27;100036.75;5162816;27;20156;-53
2023/03/13 04:00:44;;;;;;;14.93;10.23;;;;;;;4.12;56.07;100026.84;5162783;27;20175;-53
2023/03/13 04:03:11;;;;;;;15.40;10.43;;;;;;;4.08;56.68;100037.69;5147049;27;20417;-53
2023/03/13 04:05:40;;;;;;;11.13;9.43;;;;;;;4.06;56.46;100046.91;5142116;28;20155;-52
2023/03/13 04:08:08;;;;;;;13.40;9.50;;;;;;;3.98;56.47;100045.59;5155545;27;20165;-53
2023/03/13 04:10:35;;;;;;;12.00;9.50;;;;;;;4.00;56.62;100049.13;5162581;27;20179;-53
2023/03/13 04:13:02;;;;;;;13.00;9.03;;;;;;;3.93;57.25;100049.59;5162626;27;20150;-53
2023/03/13 04:15:29;;;;;;;11.50;9.20;;;;;;;3.96;56.82;100049.75;5162511;27;20159;-54
2023/03/13 04:17:55;;;;;;;13.23;10.13;;;;;;;3.94;57.65;100063.19;5162489;27;20151;-54
2023/03/13 04:20:22;;;;;;;11.07;8.47;;;;;;;3.84;57.37;100066.94;5162417;27;20180;-53
2023/03/13 04:22:50;;;;;;;11.57;10.02;;;;;;;3.74;57.56;100067.22;5162083;27;20393;-53
2023/03/13 04:25:17;;;;;;;12.20;9.27;;;;;;;3.68;58.18;100077.06;5162078;27;20202;-54
2023/03/13 04:27:44;;;;;;;11.77;9.20;;;;;;;3.63;58.89;100075.06;5162133;27;20217;-53
2023/03/13 04:30:12;;;;;;;11.40;9.30;;;;;;;3.58;58.73;100068.09;5162149;27;20182;-52
2023/03/13 04:32:39;;;;;;;12.53;9.30;;;;;;;3.53;59.21;100073.75;5161989;27;20158;-53
2023/03/13 04:35:06;;;;;;;13.27;9.73;;;;;;;3.55;59.25;100077.22;5161923;27;20191;-52
2023/03/13 04:37:33;;;;;;;13.33;9.23;;;;;;;3.64;59.15;100080.25;5162062;27;20179;-52
2023/03/13 04:40:01;;;;;;;10.87;8.37;;;;;;;3.58;59.14;100083.34;5162028;27;20156;-53
2023/03/13 04:42:28;;;;;;;10.73;9.20;;;;;;;3.69;59.01;100105.91;5161922;27;20159;-53
2023/03/13 04:44:55;;;;;;;11.60;9.07;;;;;;;3.69;59.18;100101.69;5161948;27;20154;-54
2023/03/13 04:47:21;;;;;;;12.47;9.63;;;;;;;3.72;58.91;100106.94;5161887;27;20167;-52
2023/03/13 04:49:48;;;;;;;11.67;10.27;;;;;;;3.70;59.24;100100.91;5160732;27;20203;-52
2023/03/13 04:52:15;;;;;;;10.87;8.97;;;;;;;3.75;58.78;100108.78;5161593;27;20159;-52
2023/03/13 04:54:42;;;;;;;10.23;9.20;;;;;;;3.77;58.38;100112.25;5161748;27;20153;-52
2023/03/13 04:57:10;;;;;;;10.70;9.53;;;;;;;3.82;58.68;100113.41;5161522;27;20168;-53
2023/03/13 04:59:36;;;;;;;12.33;9.50;;;;;;;3.85;58.43;100121.16;5161503;27;20169;-53
2023/03/13 05:02:03;;;;;;;11.37;9.23;;;;;;;3.83;58.24;100121.09;5161244;27;20173;-52
2023/03/13 05:04:30;;;;;;;13.17;9.17;;;;;;;3.82;58.01;100113.41;5161236;27;20155;-53
2023/03/13 05:06:57;;;;;;;12.87;9.67;;;;;;;3.82;58.82;100119.34;5161148;27;20430;-52
2023/03/13 05:09:24;;;;;;;11.53;9.30;;;;;;;3.86;58.19;100126.34;5161160;27;20227;-52
2023/03/13 05:11:51;;;;;;;10.13;9.07;;;;;;;3.87;58.56;100123.00;5161120;27;20166;-52
2023/03/13 05:14:19;;;;;;;11.80;9.17;;;;;;;3.90;58.32;100128.22;5160995;27;20156;-52
2023/03/13 05:16:46;;;;;;;13.03;9.87;;;;;;;3.91;57.97;100135.06;5160527;27;20166;-52
2023/03/13 05:19:13;;;;;;;10.23;9.20;;;;;;;3.94;58.17;100135.25;5160938;27;20161;-52
2023/03/13 05:21:39;;;;;;;16.45;10.80;;;;;;;3.92;58.33;100143.56;5160746;27;20400;-53
2023/03/13 05:24:06;;;;;;;14.10;10.33;;;;;;;3.99;57.85;100145.63;5161000;27;20155;-54
2023/03/13 05:26:33;;;;;;;12.27;11.00;;;;;;;4.09;58.28;100151.28;5160828;27;20157;-54
2023/03/13 05:29:00;;;;;;;11.87;9.57;;;;;;;3.99;57.91;100123.63;5160784;27;20184;-52
2023/03/13 05:31:28;;;;;;;13.43;10.27;;;;;;;4.18;57.50;100159.38;5160754;27;20172;-54
2023/03/13 05:33:55;;;;;;;13.03;10.73;;;;;;;4.18;57.74;100154.31;5160885;27;20160;-53
2023/03/13 05:36:22;;;;;;;12.13;10.00;;;;;;;4.26;57.56;100158.94;5161027;27;20223;-53
2023/03/13 05:38:49;;;;;;;12.77;9.63;;;;;;;4.24;57.82;100155.41;5160728;27;20188;-53
2023/03/13 05:41:15;;;;;;;15.43;11.45;;;;;;;4.35;57.48;100155.16;5141223;28;20422;-53
2023/03/13 05:43:42;;;;;;;17.13;11.90;;;;;;;4.45;56.74;100159.06;5140103;28;20181;-53
2023/03/13 05:46:09;;;;;;;16.20;11.13;;;;;;;4.53;56.09;100163.72;5140229;28;20153;-53
2023/03/13 05:48:37;;;;;;;15.47;10.70;;;;;;;4.53;55.89;100171.34;5160771;27;20155;-53
2023/03/13 05:51:04;;;;;;;14.27;10.10;;;;;;;4.51;54.94;100172.97;5160682;28;20254;-54
2023/03/13 05:53:31;;;;;;;11.90;10.40;;;;;;;4.46;55.68;100178.59;5160573;28;20153;-53
2023/03/13 05:55:57;;;;;;;14.70;11.73;;;;;;;4.44;55.72;100178.53;5160409;27;20159;-54
2023/03/13 05:58:24;;;;;;;12.10;10.80;;;;;;;4.48;55.77;100177.00;5160361;27;20161;-53
2023/03/13 06:00:51;;;;;;;17.13;11.90;;;;;;;4.55;55.71;100184.19;5160769;27;20416;-53
2023/03/13 06:03:18;;;;;;;14.13;11.20;;;;;;;4.62;55.72;100184.56;5164810;27;20181;-54
2023/03/13 06:05:46;;;;;;;13.77;11.05;;;;;;;4.68;55.09;100192.50;5164453;27;20431;-53
2023/03/13 06:08:12;;;;;;;12.73;10.77;;;;;;;4.72;54.99;100191.00;5164325;27;20186;-53
2023/03/13 06:10:39;;;;;;;12.97;10.83;;;;;;;4.75;54.84;100188.59;5162744;27;20181;-54
2023/03/13 06:13:06;;;;;;;15.33;10.37;;;;;;;4.87;54.26;100190.88;5159107;27;20167;-54
2023/03/13 06:15:33;;;;;;;13.47;10.60;;;;;;;4.87;54.36;100196.84;5164284;27;20155;-54
2023/03/13 06:17:59;;;;;;;11.83;10.40;;;;;;;4.89;53.70;100196.94;5164459;27;20203;-54
2023/03/13 06:20:26;;;;;;;15.47;10.57;;;;;;;4.90;53.66;100196.13;5163873;27;20159;-52
2023/03/13 06:22:54;;;;;;;10.63;9.50;;;;;;;4.97;53.11;100195.63;5163812;27;20161;-53
2023/03/13 06:25:21;;;;;;;15.03;9.67;;;;;;;4.95;52.77;100202.31;5159279;27;20233;-52
2023/03/13 06:27:48;;;;;;;16.37;10.27;;;;;;;4.93;52.64;100199.69;5163213;27;20196;-53
2023/03/13 06:30:15;;;;;;;12.87;9.23;;;;;;;5.04;52.21;100208.75;5156141;27;20197;-54
2023/03/13 06:32:41;;;;;;;14.47;9.73;;;;;;;5.05;52.56;100205.41;5150909;27;20162;-53
2023/03/13 06:35:09;;;;;;;12.53;10.67;;;;;;;5.20;52.99;100202.72;5162286;27;20186;-53
2023/03/13 06:37:36;;;;;;;11.03;9.83;;;;;;;5.35;52.15;100204.34;5163327;27;20150;-53
2023/03/13 06:40:05;;;;;;;16.37;11.47;;;;;;;5.45;51.62;100202.22;5161074;27;20162;-54
2023/03/13 06:42:32;;;;;;;22.27;10.47;;;;;;;5.46;51.44;100207.41;5160504;27;20184;-54
2023/03/13 06:44:58;;;;;;;13.10;9.90;;;;;;;5.51;51.96;100202.50;5163479;27;20156;-54
2023/03/13 06:47:25;;;;;;;12.93;11.10;;;;;;;5.51;50.92;100197.41;5160521;27;20164;-53
2023/03/13 06:49:52;;;;;;;13.93;10.30;;;;;;;5.65;50.81;100199.81;5163109;27;20182;-54
2023/03/13 06:52:19;;;;;;;12.47;11.17;;;;;;;5.74;51.58;100196.81;5163024;27;20176;-53
2023/03/13 06:54:45;;;;;;;11.03;9.83;;;;;;;5.79;51.18;100198.78;5163119;27;20152;-53
2023/03/13 06:57:14;;;;;;;14.70;10.93;;;;;;;5.88;51.26;100199.22;5162898;27;20165;-53
2023/03/13 06:59:40;;;;;;;14.40;10.83;;;;;;;6.05;51.09;100194.00;5154718;27;20169;-54
2023/03/13 07:02:09;;;;;;;11.13;9.93;;;;;;;6.08;50.20;100171.19;5149239;27;20181;-53
2023/03/13 07:04:36;;;;;;;13.17;10.07;;;;;;;6.42;50.06;100189.75;5158692;27;20190;-54
2023/03/13 07:07:03;;;;;;;15.32;12.35;;;;;;;6.61;50.07;100189.75;5154621;27;20414;-53
2023/03/13 07:09:30;;;;;;;14.47;9.13;;;;;;;6.88;48.61;100192.56;5160477;27;20208;-52
2023/03/13 07:11:57;;;;;;;10.10;8.97;;;;;;;7.05;47.55;100189.91;5160263;27;20183;-53
2023/03/13 07:14:25;;;;;;;11.33;8.70;;;;;;;7.13;46.89;100196.22;5161509;27;20165;-53
2023/03/13 07:16:52;;;;;;;9.83;8.83;;;;;;;7.23;46.89;100187.22;5162817;27;20175;-54
2023/03/13 07:19:19;;;;;;;11.10;8.80;;;;;;;7.24;46.48;100168.53;5157866;27;20158;-53
2023/03/13 07:21:46;;;;;;;12.80;9.83;;;;;;;7.46;46.60;100190.72;5162808;27;20158;-54
2023/03/13 07:24:12;;;;;;;11.50;9.23;;;;;;;7.55;46.13;100186.81;5158733;27;20229;-53
2023/03/13 07:26:39;;;;;;;11.67;9.83;;;;;;;7.70;46.12;100195.09;5158964;27;20166;-53
2023/03/13 07:29:06;;;;;;;12.77;9.43;;;;;;;7.69;45.60;100193.34;5161781;27;20180;-54
2023/03/13 07:31:34;;;;;;;12.30;9.07;;;;;;;7.70;45.79;100197.66;5162117;27;20244;-54
2023/03/13 07:34:01;;;;;;;11.27;9.33;;;;;;;7.78;45.98;100191.94;5162749;27;20154;-53
2023/03/13 07:36:28;;;;;;;11.70;10.50;;;;;;;7.71;46.01;100191.72;5157597;27;20161;-53
2023/03/13 07:38:55;;;;;;;13.43;9.50;;;;;;;7.76;45.08;100193.56;5162585;27;20155;-53
2023/03/13 07:41:22;;;;;;;10.87;9.23;;;;;;;7.73;45.17;100195.22;5159688;27;20156;-53
2023/03/13 07:43:49;;;;;;;11.37;8.43;;;;;;;7.84;45.16;100187.06;5162372;27;20179;-53
2023/03/13 07:46:18;;;;;;;11.20;9.00;;;;;;;7.79;45.53;100161.31;5159680;27;20170;-53
2023/03/13 07:48:47;;;;;;;10.97;9.73;;;;;;;8.03;45.70;100179.25;5155349;27;20237;-55
2023/03/13 07:51:16;;;;;;;10.80;9.63;;;;;;;8.19;45.16;100189.25;5159912;27;20204;-53
2023/03/13 07:53:43;;;;;;;10.13;9.13;;;;;;;8.28;45.04;100189.63;5162092;27;20165;-55
2023/03/13 07:56:12;;;;;;;13.50;10.77;;;;;;;8.30;44.77;100187.97;5158150;27;20162;-54
2023/03/13 07:58:40;;;;;;;10.67;9.57;;;;;;;8.37;44.66;100184.84;5159859;27;20187;-54
2023/03/13 08:01:12;;;;;;;12.43;10.70;;;;;;;8.36;44.83;100188.22;5161247;27;20150;-54
2023/03/13 08:03:39;;;;;;;12.17;10.77;;;;;;;8.37;45.32;100187.41;5161139;27;20221;-54
2023/03/13 08:06:09;;;;;;;11.73;10.47;;;;;;;8.47;45.09;100188.59;5161833;27;20179;-55
2023/03/13 08:08:37;;;;;;;10.70;9.20;;;;;;;8.48;44.63;100190.34;5157625;27;20172;-55
2023/03/13 08:11:06;;;;;;;8.50;7.67;;;;;;;8.40;43.74;100182.41;5160234;27;20181;-53
2023/03/13 08:13:34;;;;;;;8.30;7.50;;;;;;;8.37;43.31;100160.94;5161333;27;20154;-54
2023/03/13 08:16:06;;;;;;;9.63;7.73;;;;;;;8.52;43.93;100164.88;5162081;27;20151;-52
2023/03/13 08:18:34;;;;;;;10.23;7.67;;;;;;;8.69;43.84;100166.34;5153307;27;20164;-54
2023/03/13 08:21:02;;;;;;;7.43;6.73;;;;;;;8.83;43.03;100154.88;5159156;27;20191;-53
2023/03/13 08:23:31;;;;;;;11.87;7.67;;;;;;;8.86;43.19;100157.56;5161918;27;20161;-53
2023/03/13 08:26:02;;;;;;;7.83;6.57;;;;;;;8.78;42.97;100142.72;5161518;27;20154;-53
2023/03/13 08:28:29;;;;;;;6.63;6.03;;;;;;;8.97;42.57;100163.03;5161504;27;20193;-53
2023/03/13 08:30:56;;;;;;;7.70;6.90;;;;;;;8.98;42.44;100151.09;5161549;27;20193;-53
2023/03/13 08:33:23;;;;;;;10.83;7.67;;;;;;;8.97;43.24;100146.78;5161209;27;20233;-53
2023/03/13 08:35:50;;;;;;;8.60;6.60;;;;;;;9.09;42.60;100149.75;5161598;27;20157;-53
2023/03/13 08:38:17;;;;;;;7.63;6.57;;;;;;;9.14;42.22;100150.75;5161652;27;20210;-53
2023/03/13 08:40:45;;;;;;;7.90;7.10;;;;;;;9.22;42.52;100155.31;5161448;27;20154;-52
2023/03/13 08:43:12;;;;;;;10.00;7.10;;;;;;;9.35;42.47;100157.44;5155832;27;20168;-53
2023/03/13 08:45:38;;;;;;;8.23;7.35;;;;;;;9.52;41.87;100155.41;5151115;27;20401;-54
2023/03/13 08:48:06;;;;;;;9.13;7.63;;;;;;;9.71;41.75;100155.13;5161358;27;20162;-54
2023/03/13 08:50:32;;;;;;;8.47;7.57;;;;;;;9.83;41.78;100160.63;5160853;27;20229;-53
2023/03/13 08:52:59;;;;;;;8.47;7.23;;;;;;;9.75;41.25;100156.94;5161164;27;20294;-53
2023/03/13 08:55:26;;;;;;;7.67;6.87;;;;;;;9.87;41.05;100154.75;5152824;27;20159;-54
2023/03/13 08:57:54;;;;;;;7.63;6.93;;;;;;;10.01;41.08;100153.47;5139965;28;20165;-54
2023/03/13 09:00:22;;;;;;;9.57;7.97;;;;;;;10.19;40.10;100157.44;5151623;27;20416;-54
2023/03/13 09:02:49;;;;;;;7.20;6.50;;;;;;;10.13;40.04;100152.13;5159992;27;20150;-53
2023/03/13 09:05:15;;;;;;;8.02;7.05;;;;;;;10.19;40.01;100153.13;5158203;27;20530;-53
2023/03/13 09:07:42;;;;;;;10.13;6.40;;;;;;;10.26;39.10;100152.50;5160486;27;20177;-53
2023/03/13 09:10:10;;;;;;;6.17;5.67;;;;;;;10.32;38.69;100162.06;5160356;27;20234;-53
2023/03/13 09:12:37;;;;;;;8.63;6.30;;;;;;;10.39;38.71;100162.28;5160509;27;20154;-53
2023/03/13 09:15:06;;;;;;;9.00;6.23;;;;;;;10.41;38.34;100163.19;5160707;27;20165;-54
2023/03/13 09:17:33;;;;;;;5.40;4.90;;;;;;;10.55;37.23;100158.41;5160866;27;20154;-53
2023/03/13 09:20:00;;;;;;;6.05;5.45;;;;;;;10.60;37.04;100146.59;5154955;27;20415;-54
2023/03/13 09:22:26;;;;;;;6.97;5.60;;;;;;;10.75;37.05;100136.69;5148940;27;20234;-54
2023/03/13 09:24:53;;;;;;;6.07;5.47;;;;;;;10.85;37.40;100143.78;5147918;27;20170;-54
2023/03/13 09:27:20;;;;;;;6.00;5.50;;;;;;;10.96;37.03;100144.09;5139519;28;20178;-53
2023/03/13 09:29:47;;;;;;;6.20;5.47;;;;;;;10.84;37.21;100143.78;5138706;28;20166;-54
2023/03/13 09:32:15;;;;;;;7.43;6.67;;;;;;;10.65;37.10;100142.44;5147187;27;20173;-54
2023/03/13 09:34:42;;;;;;;7.03;6.37;;;;;;;10.83;37.06;100139.44;5157744;27;20176;-54
2023/03/13 09:37:09;;;;;;;8.00;6.67;;;;;;;10.65;36.58;100142.44;5159044;27;20169;-54
2023/03/13 09:39:37;;;;;;;9.20;8.07;;;;;;;10.47;36.73;100142.81;5159541;27;20199;-54
2023/03/13 09:42:14;;;;;;;7.93;6.87;;;;;;;10.55;37.67;100137.84;5158736;27;20225;-54
2023/03/13 09:44:46;;;;;;;7.20;6.50;;;;;;;10.64;36.93;100133.84;5160409;28;20154;-54
2023/03/13 09:47:20;;;;;;;6.47;5.87;;;;;;;10.78;36.49;100135.91;5159961;28;20166;-54
2023/03/13 09:49:53;;;;;;;8.93;6.63;;;;;;;10.75;36.42;100135.81;5158930;27;20166;-54
2023/03/13 09:52:23;;;;;;;8.20;6.87;;;;;;;10.82;36.22;100106.88;5159399;28;20200;-53
2023/03/13 09:54:54;;;;;;;9.80;6.77;;;;;;;11.00;35.85;100109.91;5159977;28;20153;-53
2023/03/13 09:57:31;;;;;;;10.60;6.27;;;;;;;11.04;36.20;100115.13;5160332;28;20157;-53
2023/03/13 10:00:02;;;;;;;7.93;6.40;;;;;;;11.02;35.39;100111.66;5160069;28;20452;-53
2023/03/13 10:02:32;;;;;;;8.27;6.07;;;;;;;11.08;35.14;100111.81;5160303;28;20154;-52
2023/03/13 10:05:07;;;;;;;7.70;6.23;;;;;;;10.99;34.67;100105.56;5159760;27;20153;-52
2023/03/13 10:07:34;;;;;;;6.20;5.60;;;;;;;11.00;34.98;100100.47;5159688;28;20160;-53
2023/03/13 10:10:02;;;;;;;6.30;5.70;;;;;;;11.08;34.83;100101.53;5159516;28;20157;-53
2023/03/13 10:12:31;;;;;;;7.90;7.10;;;;;;;11.22;33.45;100100.16;5159538;28;20187;-54
2023/03/13 10:15:23;;;;;;;6.13;5.50;;;;;;;11.32;33.17;100090.09;5159867;28;20150;-54
2023/03/13 10:17:51;;;;;;;6.33;5.10;;;;;;;11.37;32.65;100096.19;5159792;28;20165;-53
2023/03/13 10:20:24;;;;;;;5.15;4.65;;;;;;;11.52;28.28;100096.53;5159027;28;20401;-54
2023/03/13 10:22:58;;;;;;;4.20;3.70;;;;;;;11.61;27.21;100100.19;5159452;27;20164;-54
2023/03/13 10:25:32;;;;;;;5.00;4.50;;;;;;;11.65;29.36;100103.69;5159499;28;20171;-53
2023/03/13 10:27:59;;;;;;;5.43;4.70;;;;;;;11.61;29.52;100097.63;5159495;27;20188;-53
2023/03/13 10:30:28;;;;;;;6.40;4.93;;;;;;;11.71;29.81;100081.56;5159353;27;20257;-53
2023/03/13 10:33:22;;;;;;;8.60;5.47;;;;;;;11.91;30.16;100081.09;5159428;27;20162;-55
2023/03/13 10:36:01;;;;;;;5.33;4.83;;;;;;;12.13;29.73;100084.13;5159481;28;20154;-53
2023/03/13 10:38:28;;;;;;;4.90;4.37;;;;;;;12.19;28.50;100071.38;5159467;27;20236;-53
2023/03/13 10:41:00;;;;;;;7.22;4.93;;;;;;;12.15;28.26;100056.69;5159141;28;20409;-53
2023/03/13 10:43:28;;;;;;;4.97;4.43;;;;;;;11.91;27.06;100083.66;5159580;28;20162;-54
2023/03/13 10:45:55;;;;;;;4.83;4.33;;;;;;;11.97;26.23;100074.38;5159411;27;20222;-53
2023/03/13 10:48:25;;;;;;;4.70;4.30;;;;;;;12.08;26.39;100067.72;5143031;28;20193;-53
2023/03/13 10:50:56;;;;;;;6.47;5.80;;;;;;;12.26;26.82;100074.91;5144210;27;20194;-53
2023/03/13 10:53:33;;;;;;;6.10;5.03;;;;;;;12.44;25.87;100064.97;5142320;28;20242;-53
2023/03/13 10:56:09;;;;;;;5.53;5.03;;;;;;;12.40;24.91;100056.28;5154393;27;20195;-54
2023/03/13 10:58:42;;;;;;;9.70;6.50;;;;;;;12.51;25.27;100055.59;5163259;27;20169;-54
2023/03/13 11:01:16;;;;;;;5.10;4.60;;;;;;;12.62;27.31;100047.22;5148499;27;20231;-52
2023/03/13 11:03:46;;;;;;;7.50;6.33;;;;;;;12.70;27.01;100039.59;5150995;27;20195;-53
2023/03/13 11:06:30;;;;;;;20.63;9.90;;;;;;;12.73;27.09;100048.25;5163039;27;20150;-53
2023/03/13 11:09:04;;;;;;;8.60;6.23;;;;;;;12.47;27.35;100007.44;5163233;27;20176;-53
2023/03/13 11:11:30;;;;;;;5.53;5.03;;;;;;;12.75;27.14;100037.97;5162634;27;20206;-52
2023/03/13 11:14:09;;;;;;;6.80;5.60;;;;;;;12.50;26.02;100007.50;5162533;27;20164;-54
2023/03/13 11:16:45;;;;;;;6.97;4.80;;;;;;;12.70;26.07;100025.00;5162352;27;20161;-53
2023/03/13 11:19:44;;;;;;;4.80;4.27;;;;;;;12.80;24.72;100021.72;5162245;27;20154;-53
2023/03/13 11:22:24;;;;;;;6.13;5.47;;;;;;;12.89;25.42;100021.88;5160018;27;20154;-54
2023/03/13 11:25:02;;;;;;;6.37;5.00;;;;;;;12.70;25.88;100018.97;5142153;27;20242;-54
2023/03/13 11:27:35;;;;;;;5.30;4.83;;;;;;;12.25;25.57;100027.66;5141607;28;20186;-53
2023/03/13 11:30:15;;;;;;;6.10;4.73;;;;;;;12.05;25.56;100021.31;5142623;27;20162;-53
2023/03/13 11:32:47;;;;;;;5.30;4.80;;;;;;;12.21;25.82;100005.28;5151867;27;20190;-53
2023/03/13 11:35:28;;;;;;;5.87;4.07;;;;;;;12.17;25.43;100010.31;5161037;27;20202;-53